createdAt,value
2018-09-30T00:00:55.738Z,93.50
2018-09-30T00:05:59.411Z,94.40
2018-09-30T00:11:03.037Z,94.20
2018-09-30T00:16:06.627Z,94.10
2018-09-30T00:21:11.251Z,95.00
2018-09-30T00:26:19.954Z,94.90
2018-09-30T00:31:23.562Z,95.00
2018-09-30T00:36:27.267Z,95.40
2018-09-30T00:41:30.899Z,95.30
2018-09-30T00:46:34.557Z,95.70
2018-09-30T00:51:38.237Z,95.00
2018-09-30T00:56:42.068Z,94.60
2018-09-30T01:01:45.691Z,93.90
2018-09-30T01:06:49.307Z,95.00
2018-09-30T01:11:53.066Z,95.00
2018-09-30T01:16:56.705Z,95.40
2018-09-30T01:22:00.317Z,95.60
2018-09-30T01:27:03.919Z,95.20
2018-09-30T01:32:07.542Z,95.80
2018-09-30T01:37:11.095Z,94.90
2018-09-30T01:42:14.702Z,95.10
2018-09-30T01:47:19.334Z,95.10
2018-09-30T01:52:34.149Z,95.60
2018-09-30T01:57:39.130Z,95.90
2018-09-30T02:02:43.978Z,94.70
2018-09-30T02:07:49.682Z,95.10
2018-09-30T02:12:53.271Z,95.50
2018-09-30T02:17:56.997Z,95.50
2018-09-30T02:23:01.566Z,95.30
2018-09-30T02:28:05.323Z,95.30
2018-09-30T02:33:09.018Z,94.90
2018-09-30T02:38:13.650Z,95.30
2018-09-30T02:43:17.288Z,95.80
2018-09-30T02:48:20.898Z,95.80
2018-09-30T02:53:24.612Z,95.80
2018-09-30T02:58:28.165Z,94.50
2018-09-30T03:03:31.844Z,95.20
2018-09-30T03:08:40.815Z,95.00
2018-09-30T03:13:44.335Z,94.60
2018-09-30T03:18:48.981Z,95.30
2018-09-30T03:23:52.527Z,96.10
2018-09-30T03:28:56.053Z,95.30
2018-09-30T03:33:59.619Z,96.10
2018-09-30T03:39:03.258Z,96.50
2018-09-30T03:44:06.813Z,96.20
2018-09-30T03:49:10.518Z,96.50
2018-09-30T03:54:14.114Z,96.60
2018-09-30T03:59:17.856Z,95.00
2018-09-30T04:04:21.560Z,94.50
2018-09-30T04:09:25.216Z,94.30
2018-09-30T04:14:28.780Z,95.20
2018-09-30T04:19:32.338Z,95.40
2018-09-30T04:24:35.959Z,95.50
2018-09-30T04:29:40.602Z,95.80
2018-09-30T04:34:44.150Z,95.80
2018-09-30T04:39:47.700Z,95.40
2018-09-30T04:44:51.267Z,95.70
2018-09-30T04:49:54.839Z,96.10
2018-09-30T04:54:58.394Z,96.00
2018-09-30T05:00:01.941Z,95.80
2018-09-30T05:05:05.683Z,96.10
2018-09-30T05:10:09.327Z,96.20
2018-09-30T05:15:12.980Z,96.20
2018-09-30T05:20:16.532Z,96.70
2018-09-30T05:25:20.166Z,95.40
2018-09-30T05:30:23.710Z,95.90
2018-09-30T05:35:27.284Z,95.70
2018-09-30T05:40:30.927Z,95.80
2018-09-30T05:45:34.599Z,96.00
2018-09-30T05:50:38.179Z,95.90
2018-09-30T05:55:41.821Z,96.00
2018-09-30T06:00:45.398Z,95.70
2018-09-30T06:05:48.986Z,96.00
2018-09-30T06:10:53.659Z,96.50
2018-09-30T06:15:57.308Z,97.00
2018-09-30T06:21:00.778Z,97.20
2018-09-30T06:26:04.421Z,97.40
2018-09-30T06:31:08.056Z,97.20
2018-09-30T06:36:11.672Z,97.00
2018-09-30T06:41:15.382Z,96.60
2018-09-30T06:46:19.106Z,96.80
2018-09-30T06:51:22.666Z,96.80
2018-09-30T06:56:26.214Z,96.90
2018-09-30T07:01:29.786Z,97.00
2018-09-30T07:06:33.494Z,96.80
2018-09-30T07:11:37.392Z,96.90
2018-09-30T07:16:41.327Z,97.30
2018-09-30T07:21:44.888Z,97.30
2018-09-30T07:26:50.512Z,97.70
2018-09-30T07:31:54.214Z,97.80
2018-09-30T07:36:57.968Z,97.10
2018-09-30T07:42:01.698Z,97.30
2018-09-30T07:47:06.466Z,96.80
2018-09-30T07:52:11.069Z,97.10
2018-09-30T07:57:15.213Z,96.90
2018-09-30T08:02:20.135Z,96.40
2018-09-30T08:07:23.884Z,96.30
2018-09-30T08:12:27.760Z,96.30
2018-09-30T08:17:31.598Z,94.30
2018-09-30T08:22:35.282Z,88.60
2018-09-30T08:27:39.366Z,82.40
2018-09-30T08:32:43.030Z,78.10
2018-09-30T08:37:51.738Z,74.10
2018-09-30T08:42:55.531Z,74.40
2018-09-30T08:47:59.087Z,76.00
2018-09-30T08:53:02.882Z,73.30
2018-09-30T08:58:06.442Z,69.10
2018-09-30T09:03:10.108Z,72.90
2018-09-30T09:08:13.835Z,67.30
2018-09-30T09:13:17.738Z,69.50
2018-09-30T09:18:21.374Z,66.20
2018-09-30T09:23:25.144Z,64.70
2018-09-30T09:28:30.108Z,63.50
2018-09-30T09:33:34.125Z,61.00
2018-09-30T09:38:37.766Z,61.50
2018-09-30T09:43:41.386Z,59.70
2018-09-30T09:48:47.746Z,61.40
2018-09-30T09:53:52.486Z,58.60
2018-09-30T09:58:57.171Z,60.70
2018-09-30T10:04:01.759Z,58.50
2018-09-30T10:09:06.653Z,56.70
2018-09-30T10:14:10.301Z,54.60
2018-09-30T10:19:13.874Z,52.00
2018-09-30T10:24:17.544Z,53.90
2018-09-30T10:29:21.059Z,53.60
2018-09-30T10:34:25.646Z,54.10
2018-09-30T10:39:29.456Z,49.30
2018-09-30T10:44:33.343Z,52.80
2018-09-30T10:49:37.034Z,52.60
2018-09-30T10:54:40.859Z,54.80
2018-09-30T10:59:44.642Z,57.20
2018-09-30T11:04:48.274Z,58.40
2018-09-30T11:09:52.066Z,60.00
2018-09-30T11:14:55.718Z,56.30
2018-09-30T11:19:59.531Z,58.30
2018-09-30T11:25:03.232Z,62.70
2018-09-30T11:30:07.242Z,63.90
2018-09-30T11:35:10.962Z,62.90
2018-09-30T11:40:15.549Z,62.90
2018-09-30T11:45:21.230Z,65.20
2018-09-30T11:50:25.272Z,59.60
2018-09-30T11:55:29.679Z,64.60
2018-09-30T12:00:34.726Z,65.20
2018-09-30T12:05:39.074Z,66.20
2018-09-30T12:10:43.418Z,65.50
2018-09-30T12:15:54.616Z,65.00
2018-09-30T12:20:59.213Z,64.60
2018-09-30T12:26:05.692Z,62.90
2018-09-30T12:31:09.704Z,63.90
2018-09-30T12:36:14.530Z,58.30
2018-09-30T12:41:19.287Z,61.50
2018-09-30T12:46:23.762Z,63.90
2018-09-30T12:51:28.638Z,58.10
2018-09-30T12:56:32.744Z,59.30
2018-09-30T13:01:37.190Z,63.40
2018-09-30T13:06:41.415Z,66.10
2018-09-30T13:11:45.415Z,65.80
2018-09-30T13:16:50.094Z,62.10
2018-09-30T13:21:53.810Z,63.10
2018-09-30T13:26:57.654Z,62.00
2018-09-30T13:32:01.529Z,59.30
2018-09-30T13:37:05.804Z,58.10
2018-09-30T13:42:09.514Z,59.90
2018-09-30T13:47:17.296Z,59.20
2018-09-30T13:52:27.592Z,62.50
2018-09-30T13:57:45.898Z,64.50
2018-09-30T14:02:50.766Z,61.20
2018-09-30T14:08:04.295Z,64.10
2018-09-30T14:13:22.802Z,63.90
2018-09-30T14:18:30.118Z,66.50
2018-09-30T14:23:35.876Z,65.80
2018-09-30T14:28:40.542Z,66.80
2018-09-30T14:33:44.219Z,66.40
2018-09-30T14:39:20.627Z,61.50
2018-09-30T14:44:40.943Z,65.30
2018-09-30T14:55:00.671Z,64.30
2018-09-30T15:00:09.866Z,66.00
2018-09-30T15:05:13.530Z,67.00
2018-09-30T15:10:22.307Z,69.20
2018-09-30T15:15:26.511Z,70.00
2018-09-30T15:20:33.050Z,69.20
2018-09-30T15:25:36.890Z,73.40
2018-09-30T15:30:49.516Z,71.10
2018-09-30T15:36:00.703Z,71.00
2018-09-30T15:41:09.759Z,72.50
2018-09-30T15:46:24.623Z,73.60
2018-09-30T15:51:29.230Z,73.50
2018-09-30T15:56:32.990Z,74.70
2018-09-30T16:01:36.631Z,75.20
2018-09-30T16:06:40.422Z,73.40
2018-09-30T16:11:44.135Z,75.30
2018-09-30T16:16:47.862Z,76.00
2018-09-30T16:21:51.530Z,70.20
2018-09-30T16:26:55.166Z,76.90
2018-09-30T16:31:59.207Z,76.60
2018-09-30T16:37:03.082Z,71.90
2018-09-30T16:42:06.894Z,70.10
2018-09-30T16:47:11.676Z,71.40
2018-09-30T16:52:15.466Z,68.70
2018-09-30T16:57:19.223Z,70.50
2018-09-30T17:02:22.859Z,70.70
2018-09-30T17:07:27.062Z,72.50
2018-09-30T17:12:30.687Z,74.40
2018-09-30T17:17:34.358Z,75.40
2018-09-30T17:22:37.934Z,74.30
2018-09-30T17:27:41.610Z,75.10
2018-09-30T17:32:45.522Z,74.50
2018-09-30T17:37:51.240Z,75.60
2018-09-30T17:43:02.501Z,76.00
2018-09-30T17:48:07.974Z,76.30
2018-09-30T17:53:11.798Z,76.00
2018-09-30T17:58:15.592Z,78.40
2018-09-30T18:03:20.255Z,77.70
2018-09-30T18:08:24.876Z,79.60
2018-09-30T18:13:28.810Z,80.60
2018-09-30T18:18:33.858Z,81.30
2018-09-30T18:23:37.457Z,80.80
2018-09-30T18:28:41.142Z,81.20
2018-09-30T18:33:44.875Z,81.20
2018-09-30T18:38:48.527Z,80.90
2018-09-30T18:43:53.281Z,81.10
2018-09-30T18:48:57.091Z,81.70
2018-09-30T18:54:01.545Z,82.90
2018-09-30T18:59:05.440Z,85.10
2018-09-30T19:04:09.080Z,84.90
2018-09-30T19:09:13.458Z,84.50
2018-09-30T19:14:17.467Z,84.80
2018-09-30T19:19:21.285Z,85.40
2018-09-30T19:24:26.092Z,84.70
2018-09-30T19:29:31.482Z,86.90
2018-09-30T19:34:35.228Z,85.90
2018-09-30T19:39:38.970Z,85.00
2018-09-30T19:44:43.039Z,85.10
2018-09-30T19:49:46.967Z,87.00
2018-09-30T19:54:50.733Z,86.20
2018-09-30T19:59:55.941Z,88.20
2018-09-30T20:10:03.053Z,88.20
2018-09-30T20:15:06.975Z,88.30
2018-09-30T20:20:10.839Z,88.70
2018-09-30T20:25:16.146Z,89.90
2018-09-30T20:30:20.931Z,88.80
2018-09-30T20:35:26.159Z,89.20
2018-09-30T20:40:29.827Z,89.90
2018-09-30T20:45:35.337Z,90.10
2018-09-30T20:50:39.351Z,90.20
2018-09-30T20:55:43.719Z,90.10
2018-09-30T21:00:49.465Z,89.80
2018-09-30T21:06:42.155Z,90.90
2018-09-30T21:11:47.130Z,90.40
2018-09-30T21:17:01.055Z,90.30
2018-09-30T21:22:04.934Z,90.00
2018-09-30T21:27:09.635Z,90.90
2018-09-30T21:32:25.287Z,91.40
2018-09-30T21:37:29.111Z,92.00
2018-09-30T21:42:35.858Z,92.70
2018-09-30T21:47:41.718Z,91.50
2018-09-30T21:52:45.660Z,91.90
2018-09-30T21:57:50.879Z,91.90
2018-09-30T22:02:55.358Z,91.70
2018-09-30T22:08:01.315Z,91.90
2018-09-30T22:13:05.170Z,92.40
2018-09-30T22:18:09.943Z,91.40
2018-09-30T22:23:14.096Z,90.70
2018-09-30T22:28:17.804Z,91.10
2018-09-30T22:33:22.518Z,91.70
2018-09-30T22:38:27.337Z,91.60
2018-09-30T22:44:38.433Z,92.20
2018-09-30T22:49:42.310Z,92.20
2018-09-30T22:54:46.635Z,91.60
2018-09-30T22:59:51.831Z,92.30
2018-09-30T23:04:55.980Z,93.20
2018-09-30T23:09:59.756Z,93.30
2018-09-30T23:15:04.544Z,93.90
2018-09-30T23:20:15.175Z,94.10
2018-09-30T23:25:21.128Z,94.30
2018-09-30T23:30:24.846Z,94.70
2018-09-30T23:35:28.636Z,95.20
2018-09-30T23:40:32.446Z,95.50
2018-09-30T23:45:36.020Z,95.40
2018-09-30T23:50:39.614Z,95.60
2018-09-30T23:55:43.306Z,95.80
